Time;durP1;ratioP1;P1;durP2;ratioP2;P2;SDS_P1;SDS_P2;PMS_P1;PMS_P2;Temp;Humidity;BMP_temperature;BMP_pressure;BME280_temperature;BME280_humidity;BME280_pressure;Samples;Min_cycle;Max_cycle;Signal;HPM_P1;HPM_P2
2021/01/29 00:00:22;;;;;;;35.45;20.58;;;3.00;95.50;;;;;;5060875;28;20090;-76
2021/01/29 00:02:52;;;;;;;35.92;20.00;;;3.00;95.50;;;;;;5057794;28;20076;-77
2021/01/29 00:05:23;;;;;;;34.95;19.70;;;3.00;95.70;;;;;;5059530;28;20053;-76
2021/01/29 00:07:49;;;;;;;35.75;19.85;;;3.00;95.80;;;;;;5050448;28;20053;-76
2021/01/29 00:10:15;;;;;;;41.30;20.17;;;3.00;96.00;;;;;;5044141;28;20092;-77
2021/01/29 00:12:42;;;;;;;36.30;20.15;;;2.90;95.80;;;;;;5050536;28;20045;-76
2021/01/29 00:15:11;;;;;;;37.42;20.27;;;2.90;96.00;;;;;;5044353;28;20041;-76
2021/01/29 00:17:38;;;;;;;36.28;20.00;;;2.90;96.20;;;;;;5044481;28;20068;-77
2021/01/29 00:20:07;;;;;;;35.45;21.00;;;2.90;96.30;;;;;;5044132;28;20038;-76
2021/01/29 00:22:33;;;;;;;25.97;13.70;;;2.90;96.20;;;;;;5044164;28;20056;-76
2021/01/29 00:24:59;;;;;;;33.58;19.63;;;3.10;96.00;;;;;;5047762;28;20045;-76
2021/01/29 00:27:25;;;;;;;33.70;19.85;;;3.10;96.00;;;;;;5051306;28;20124;-77
2021/01/29 00:29:51;;;;;;;32.08;19.15;;;3.00;95.70;;;;;;5047829;28;20068;-76
2021/01/29 00:32:16;;;;;;;33.80;19.25;;;3.00;96.00;;;;;;5047744;28;20045;-76
2021/01/29 00:34:43;;;;;;;35.05;19.85;;;3.10;95.90;;;;;;5048176;28;20071;-76
2021/01/29 00:37:09;;;;;;;39.40;20.40;;;3.20;95.80;;;;;;5060779;28;20065;-76
2021/01/29 00:39:35;;;;;;;35.03;19.65;;;3.00;96.00;;;;;;5057488;28;20052;-76
2021/01/29 00:42:01;;;;;;;35.72;20.05;;;3.00;96.20;;;;;;5051325;28;20071;-76
2021/01/29 00:44:28;;;;;;;36.30;20.75;;;3.00;96.20;;;;;;5047755;28;20060;-76
2021/01/29 00:46:53;;;;;;;34.85;19.50;;;3.00;96.30;;;;;;5047725;28;20045;-76
2021/01/29 00:49:19;;;;;;;34.95;21.05;;;3.00;96.50;;;;;;5047539;28;20045;-75
2021/01/29 00:51:45;;;;;;;41.67;22.25;;;3.00;96.30;;;;;;5063724;28;20049;-76
2021/01/29 00:54:11;;;;;;;39.67;20.70;;;3.00;96.40;;;;;;5048749;28;20045;-76
2021/01/29 00:56:37;;;;;;;37.90;21.00;;;3.00;96.40;;;;;;5056857;28;20064;-77
2021/01/29 00:59:03;;;;;;;37.22;21.30;;;3.00;96.50;;;;;;5047055;28;20042;-76
2021/01/29 01:01:28;;;;;;;37.08;21.20;;;3.00;96.60;;;;;;5070330;28;20051;-76
2021/01/29 01:03:54;;;;;;;34.97;20.42;;;3.00;96.60;;;;;;5051360;28;20069;-76
2021/01/29 01:06:20;;;;;;;36.15;20.42;;;3.00;96.50;;;;;;5064275;28;20461;-76
2021/01/29 01:08:46;;;;;;;39.75;20.80;;;3.00;96.30;;;;;;5047704;28;20456;-76
2021/01/29 01:11:12;;;;;;;37.50;20.75;;;3.00;96.60;;;;;;5055174;28;20063;-76
2021/01/29 01:13:38;;;;;;;37.00;19.88;;;3.00;96.40;;;;;;5047271;28;20076;-76
2021/01/29 01:16:04;;;;;;;37.28;21.45;;;3.00;96.60;;;;;;5047353;28;20406;-75
2021/01/29 01:18:30;;;;;;;37.95;20.83;;;2.90;96.60;;;;;;5052883;28;20060;-76
2021/01/29 01:20:55;;;;;;;39.42;21.77;;;2.90;96.70;;;;;;5054834;28;20050;-76
2021/01/29 01:23:21;;;;;;;38.42;21.92;;;3.00;96.70;;;;;;5047191;28;20064;-76
2021/01/29 01:25:47;;;;;;;40.60;23.55;;;2.90;97.00;;;;;;5057120;28;20498;-76
2021/01/29 01:28:13;;;;;;;39.15;21.88;;;3.00;96.90;;;;;;5048756;28;20046;-75
2021/01/29 01:30:42;;;;;;;35.13;19.83;;;3.00;96.70;;;;;;5046926;28;20049;-76
2021/01/29 01:33:08;;;;;;;45.47;22.65;;;3.00;96.80;;;;;;5047737;28;20049;-76
2021/01/29 01:35:35;;;;;;;37.08;21.63;;;3.00;96.70;;;;;;5046719;28;20117;-76
2021/01/29 01:38:02;;;;;;;38.78;21.45;;;3.00;96.90;;;;;;5047098;28;20069;-76
2021/01/29 01:40:35;;;;;;;34.05;20.67;;;3.00;96.80;;;;;;5046735;28;20111;-75
2021/01/29 01:43:02;;;;;;;36.70;21.83;;;3.10;96.70;;;;;;5046840;28;20045;-75
2021/01/29 01:45:29;;;;;;;40.05;22.35;;;2.90;96.70;;;;;;5046592;28;20045;-76
2021/01/29 01:48:10;;;;;;;36.70;21.23;;;2.90;97.00;;;;;;5046412;28;20068;-76
2021/01/29 01:50:46;;;;;;;39.78;22.55;;;2.90;97.00;;;;;;5046356;28;20075;-76
2021/01/29 01:53:47;;;;;;;38.67;22.40;;;3.00;96.90;;;;;;5046473;28;20068;-76
2021/01/29 01:56:20;;;;;;;41.65;22.35;;;3.00;96.70;;;;;;5048107;28;20041;-76
2021/01/29 01:58:50;;;;;;;38.92;22.08;;;3.00;96.90;;;;;;5046226;28;20058;-76
2021/01/29 02:01:17;;;;;;;39.83;22.67;;;3.00;96.90;;;;;;5054190;28;20132;-76
2021/01/29 02:03:43;;;;;;;39.58;22.33;;;2.90;96.90;;;;;;5058639;28;20051;-76
2021/01/29 02:06:11;;;;;;;39.55;23.52;;;3.00;96.80;;;;;;5058445;28;20132;-76
2021/01/29 02:08:40;;;;;;;40.47;21.77;;;3.00;96.90;;;;;;5046244;28;20057;-76
2021/01/29 02:11:06;;;;;;;39.47;21.98;;;3.00;96.80;;;;;;5052745;28;20044;-76
2021/01/29 02:13:31;;;;;;;41.65;22.85;;;3.00;96.90;;;;;;5052196;28;20046;-76
2021/01/29 02:16:06;;;;;;;37.28;20.95;;;3.00;96.90;;;;;;5046094;28;20132;-76
2021/01/29 02:18:53;;;;;;;36.45;20.83;;;2.90;96.90;;;;;;5045927;28;20045;-76
2021/01/29 02:22:04;;;;;;;36.28;20.10;;;3.00;97.00;;;;;;5045846;28;20049;-76
2021/01/29 02:24:45;;;;;;;38.47;21.77;;;3.00;96.90;;;;;;5045878;28;20049;-76
2021/01/29 02:27:22;;;;;;;39.63;21.77;;;2.90;96.90;;;;;;5045799;28;20045;-76
2021/01/29 02:29:48;;;;;;;41.40;22.23;;;3.00;97.00;;;;;;5045814;28;20052;-76
2021/01/29 02:32:48;;;;;;;46.78;24.00;;;2.90;97.00;;;;;;5045728;28;20054;-76
2021/01/29 02:35:52;;;;;;;42.50;23.05;;;2.90;97.10;;;;;;5045610;28;20045;-76
2021/01/29 02:38:38;;;;;;;39.53;22.08;;;3.00;97.10;;;;;;5045553;28;20413;-77
2021/01/29 02:41:38;;;;;;;41.55;21.42;;;3.00;97.00;;;;;;5045515;28;20041;-76
2021/01/29 02:44:22;;;;;;;40.53;22.20;;;3.00;97.10;;;;;;5061117;28;20072;-76
2021/01/29 02:46:56;;;;;;;43.40;22.67;;;2.90;97.10;;;;;;5045593;28;20140;-76
2021/01/29 02:49:29;;;;;;;40.38;21.77;;;2.80;97.40;;;;;;5027651;28;20041;-75
2021/01/29 02:52:19;;;;;;;38.53;20.90;;;2.80;97.40;;;;;;5044713;28;20037;-77
2021/01/29 02:55:03;;;;;;;37.40;21.88;;;2.90;97.50;;;;;;5045476;28;20064;-76
2021/01/29 02:57:54;;;;;;;38.30;21.17;;;2.90;97.30;;;;;;5050940;28;20061;-76
2021/01/29 03:00:30;;;;;;;40.97;22.30;;;2.80;97.30;;;;;;5057371;28;20116;-77
2021/01/29 03:02:59;;;;;;;41.80;22.05;;;2.80;97.50;;;;;;5062403;28;20049;-77
2021/01/29 03:05:56;;;;;;;39.20;21.05;;;2.80;97.60;;;;;;5058832;28;20051;-76
2021/01/29 03:08:24;;;;;;;39.10;21.98;;;2.90;97.40;;;;;;5040517;28;20049;-76
2021/01/29 03:11:11;;;;;;;36.60;20.50;;;2.80;97.30;;;;;;5049403;28;20130;-76
2021/01/29 03:13:56;;;;;;;34.90;20.70;;;2.80;97.60;;;;;;5045080;28;20072;-76
2021/01/29 03:16:27;;;;;;;33.85;19.58;;;2.80;97.60;;;;;;5044957;28;20046;-75
2021/01/29 03:18:58;;;;;;;39.67;19.90;;;2.90;97.40;;;;;;5045835;28;20045;-76
2021/01/29 03:21:46;;;;;;;34.45;20.35;;;2.80;97.30;;;;;;5044624;28;20053;-76
2021/01/29 03:24:22;;;;;;;32.30;18.30;;;2.90;97.20;;;;;;5044971;28;20053;-76
2021/01/29 03:27:08;;;;;;;33.53;20.00;;;3.00;96.90;;;;;;5054148;28;20132;-76
2021/01/29 03:29:40;;;;;;;33.65;19.65;;;3.00;96.70;;;;;;5044737;28;20041;-76
2021/01/29 03:32:08;;;;;;;37.50;21.60;;;2.80;97.00;;;;;;5070125;28;20041;-76
2021/01/29 03:34:48;;;;;;;36.03;20.35;;;2.80;97.10;;;;;;5048181;28;20045;-75
2021/01/29 03:37:22;;;;;;;33.85;20.27;;;2.70;97.40;;;;;;5044637;28;20509;-76
2021/01/29 03:39:49;;;;;;;40.60;21.17;;;2.80;97.00;;;;;;5044533;28;20064;-76
2021/01/29 03:42:27;;;;;;;35.53;20.15;;;2.80;97.10;;;;;;5044547;28;20049;-77
2021/01/29 03:45:15;;;;;;;37.80;21.83;;;2.80;97.00;;;;;;5044438;28;20108;-76
2021/01/29 03:47:57;;;;;;;38.80;22.17;;;2.80;97.20;;;;;;5058122;28;20045;-76
2021/01/29 03:50:57;;;;;;;31.70;19.45;;;2.70;97.30;;;;;;5044520;28;20053;-76
2021/01/29 03:54:18;;;;;;;34.70;20.48;;;2.80;97.30;;;;;;5044571;28;20045;-77
2021/01/29 03:56:47;;;;;;;36.47;21.27;;;2.80;97.10;;;;;;5040455;28;20528;-76
2021/01/29 03:59:37;;;;;;;38.72;22.35;;;2.70;97.40;;;;;;5045090;28;20497;-76
2021/01/29 04:02:38;;;;;;;36.88;20.92;;;2.70;97.30;;;;;;5055859;28;20044;-76
2021/01/29 04:05:12;;;;;;;38.78;21.20;;;2.70;97.60;;;;;;5054269;28;20076;-76
2021/01/29 04:07:48;;;;;;;37.05;20.05;;;2.60;97.70;;;;;;5046969;28;20524;-76
2021/01/29 04:10:18;;;;;;;36.65;21.52;;;2.70;97.80;;;;;;5048370;28;20052;-76
2021/01/29 04:13:10;;;;;;;36.63;21.47;;;2.60;97.70;;;;;;5061015;28;20515;-76
2021/01/29 04:15:45;;;;;;;35.65;19.77;;;2.60;97.70;;;;;;5045279;28;20307;-76
2021/01/29 04:18:18;;;;;;;36.95;20.42;;;2.70;97.60;;;;;;5048434;28;20049;-77
2021/01/29 04:21:00;;;;;;;34.45;21.00;;;2.70;97.50;;;;;;5048428;28;20070;-76
2021/01/29 04:23:34;;;;;;;33.95;21.05;;;2.60;97.60;;;;;;5047208;28;20117;-76
2021/01/29 04:26:08;;;;;;;38.53;20.83;;;2.60;97.60;;;;;;5051224;28;20041;-76
2021/01/29 04:28:41;;;;;;;32.30;20.60;;;2.60;97.70;;;;;;5048246;28;20061;-76
2021/01/29 04:31:11;;;;;;;32.53;19.73;;;2.60;97.90;;;;;;5048243;28;20155;-76
2021/01/29 04:33:42;;;;;;;28.73;18.33;;;2.60;97.70;;;;;;5048018;28;20034;-77
2021/01/29 04:36:10;;;;;;;29.90;17.98;;;2.70;97.30;;;;;;5047993;28;20295;-77
2021/01/29 04:38:46;;;;;;;33.80;19.10;;;2.70;97.40;;;;;;5048085;28;20049;-77
2021/01/29 04:41:30;;;;;;;34.33;20.05;;;2.70;97.40;;;;;;5047923;28;20093;-76
2021/01/29 04:44:22;;;;;;;34.85;19.95;;;2.60;97.60;;;;;;5047790;28;20129;-76
2021/01/29 04:47:13;;;;;;;31.58;18.92;;;2.50;97.80;;;;;;5051024;28;20080;-76
2021/01/29 04:50:18;;;;;;;35.25;20.38;;;2.60;97.80;;;;;;5069660;28;20053;-76
2021/01/29 04:53:02;;;;;;;31.98;19.20;;;2.50;97.80;;;;;;5025658;28;20042;-75
2021/01/29 04:55:46;;;;;;;33.15;21.17;;;2.50;97.90;;;;;;5039203;28;20056;-76
2021/01/29 04:58:15;;;;;;;30.38;19.52;;;2.50;97.80;;;;;;5029006;28;20055;-77
2021/01/29 05:00:47;;;;;;;29.63;18.92;;;2.50;97.90;;;;;;5034278;28;20112;-77
2021/01/29 05:03:28;;;;;;;27.17;18.42;;;2.50;97.80;;;;;;5035353;28;20050;-77
2021/01/29 05:06:12;;;;;;;29.48;17.92;;;2.50;97.80;;;;;;5025627;28;20056;-77
2021/01/29 05:08:46;;;;;;;28.50;18.48;;;2.50;97.70;;;;;;5022650;28;20064;-76
2021/01/29 05:11:15;;;;;;;32.30;20.17;;;2.50;97.50;;;;;;5031598;28;20053;-77
2021/01/29 05:14:04;;;;;;;28.92;18.25;;;2.40;97.70;;;;;;5026812;28;20073;-76
2021/01/29 05:17:02;;;;;;;29.05;17.98;;;2.40;97.80;;;;;;5024260;28;20066;-76
2021/01/29 05:19:54;;;;;;;30.55;19.40;;;2.50;97.70;;;;;;5034086;28;20046;-77
2021/01/29 05:22:48;;;;;;;31.25;18.67;;;2.50;97.60;;;;;;5037271;28;20050;-77
2021/01/29 05:25:13;;;;;;;27.13;16.85;;;2.50;97.50;;;;;;5048195;28;20041;-76
2021/01/29 05:28:03;;;;;;;32.33;19.45;;;2.50;97.70;;;;;;5045745;28;20056;-76
2021/01/29 05:30:29;;;;;;;31.02;18.73;;;2.40;97.80;;;;;;5059325;28;20048;-77
2021/01/29 05:32:55;;;;;;;27.77;17.45;;;2.40;97.90;;;;;;5045415;28;20056;-77
2021/01/29 05:36:01;;;;;;;28.67;18.60;;;2.40;97.80;;;;;;5059420;28;20069;-76
2021/01/29 05:38:45;;;;;;;30.23;18.60;;;2.50;97.70;;;;;;5045716;28;20494;-77
2021/01/29 05:41:32;;;;;;;29.65;19.15;;;2.40;97.80;;;;;;5045739;28;20042;-76
2021/01/29 05:44:20;;;;;;;26.77;17.67;;;2.40;98.00;;;;;;5045525;28;20049;-76
2021/01/29 05:47:27;;;;;;;30.85;18.63;;;2.40;98.00;;;;;;5046358;28;20048;-77
2021/01/29 05:50:05;;;;;;;29.15;17.83;;;2.40;98.20;;;;;;5023955;28;20042;-76
2021/01/29 05:52:44;;;;;;;28.80;16.67;;;2.50;98.10;;;;;;5023581;28;20053;-77
2021/01/29 05:55:32;;;;;;;28.70;18.50;;;2.50;97.80;;;;;;5023839;28;20045;-77
2021/01/29 05:58:15;;;;;;;28.65;17.85;;;2.40;98.00;;;;;;5024350;28;20140;-76
2021/01/29 06:01:02;;;;;;;26.73;17.60;;;2.50;98.00;;;;;;5040646;28;20052;-77
2021/01/29 06:03:49;;;;;;;26.13;17.77;;;2.50;97.80;;;;;;5043714;28;20099;-76
2021/01/29 06:06:43;;;;;;;24.88;16.58;;;2.50;98.20;;;;;;5016890;28;20045;-75
2021/01/29 06:09:30;;;;;;;25.90;15.82;;;2.50;98.00;;;;;;5020507;28;615254;-75
2021/01/29 06:12:13;;;;;;;22.25;14.63;;;2.50;98.20;;;;;;5042340;28;20041;-72
2021/01/29 06:15:09;;;;;;;27.05;16.60;;;2.50;98.10;;;;;;5032106;28;20095;-75
2021/01/29 06:17:50;;;;;;;22.95;15.38;;;2.40;98.20;;;;;;5032754;28;20057;-77
2021/01/29 06:20:40;;;;;;;22.63;15.18;;;2.40;98.20;;;;;;5039794;28;20064;-76
2021/01/29 06:23:05;;;;;;;20.02;14.52;;;2.50;97.80;;;;;;5042133;28;20123;-75
2021/01/29 06:25:53;;;;;;;21.92;14.60;;;2.50;97.80;;;;;;5034402;28;20057;-78
2021/01/29 06:28:50;;;;;;;19.80;13.65;;;2.50;97.80;;;;;;5038395;28;20077;-77
2021/01/29 06:32:00;;;;;;;17.20;13.10;;;2.50;97.80;;;;;;5042814;28;20053;-75
2021/01/29 06:34:38;;;;;;;20.05;13.82;;;2.50;97.80;;;;;;5028104;28;20045;-75
2021/01/29 06:37:24;;;;;;;18.35;12.80;;;2.50;97.90;;;;;;5046290;28;20045;-75
2021/01/29 06:40:15;;;;;;;18.08;12.80;;;2.60;98.20;;;;;;5012789;28;20060;-75
2021/01/29 06:42:59;;;;;;;18.92;12.43;;;2.50;97.90;;;;;;5043748;28;20346;-78
2021/01/29 06:45:27;;;;;;;17.42;13.02;;;2.40;98.00;;;;;;5036058;28;20110;-75
2021/01/29 06:48:17;;;;;;;15.48;11.95;;;2.40;98.10;;;;;;5042146;28;20080;-74
2021/01/29 06:51:00;;;;;;;18.58;12.93;;;2.50;98.10;;;;;;5038913;28;20262;-72
2021/01/29 06:54:04;;;;;;;17.48;12.13;;;2.40;98.20;;;;;;5035455;28;20068;-75
2021/01/29 06:57:08;;;;;;;15.85;11.75;;;2.40;98.10;;;;;;4992996;28;20121;-73
2021/01/29 06:59:40;;;;;;;17.35;11.57;;;2.50;97.90;;;;;;5029660;28;20182;-73
2021/01/29 07:02:46;;;;;;;16.67;11.75;;;2.40;98.10;;;;;;5050790;28;20100;-74
2021/01/29 07:05:24;;;;;;;13.82;10.13;;;2.50;98.00;;;;;;5034669;28;20605;-75
2021/01/29 07:08:06;;;;;;;15.05;11.13;;;2.60;97.70;;;;;;5047810;28;20053;-73
2021/01/29 07:10:57;;;;;;;15.82;10.48;;;2.50;97.80;;;;;;5057839;28;20264;-71
2021/01/29 07:13:45;;;;;;;15.57;11.27;;;2.50;97.90;;;;;;5050367;28;20044;-74
2021/01/29 07:16:14;;;;;;;17.42;11.93;;;2.50;97.90;;;;;;5061405;28;20041;-73
2021/01/29 07:18:59;;;;;;;16.65;11.63;;;2.40;98.10;;;;;;5058661;28;20468;-73
2021/01/29 07:21:58;;;;;;;17.17;11.98;;;2.50;98.10;;;;;;5065202;28;20052;-74
2021/01/29 07:24:57;;;;;;;14.43;10.48;;;2.50;98.30;;;;;;5028953;28;20037;-77
2021/01/29 07:27:45;;;;;;;15.23;10.57;;;2.50;98.30;;;;;;5048457;28;20149;-76
2021/01/29 07:30:20;;;;;;;20.58;12.05;;;2.50;98.40;;;;;;5037580;28;20552;-78
2021/01/29 07:32:46;;;;;;;16.20;11.73;;;2.50;98.20;;;;;;5057684;28;20087;-71
2021/01/29 07:35:39;;;;;;;15.90;11.10;;;2.50;98.30;;;;;;5033199;28;20053;-78
2021/01/29 07:38:23;;;;;;;14.15;9.95;;;2.60;98.30;;;;;;5054435;28;20045;-72
2021/01/29 07:41:02;;;;;;;13.27;10.10;;;2.70;98.20;;;;;;5058189;28;20121;-72
2021/01/29 07:43:59;;;;;;;12.07;9.57;;;2.60;98.00;;;;;;5056997;28;20083;-71
2021/01/29 07:46:38;;;;;;;13.43;10.35;;;2.70;98.00;;;;;;5058675;28;20048;-74
2021/01/29 07:49:34;;;;;;;12.85;9.52;;;2.60;97.90;;;;;;5057208;28;20045;-75
2021/01/29 07:52:07;;;;;;;12.75;9.63;;;2.70;97.90;;;;;;5027572;28;20041;-75
2021/01/29 07:54:54;;;;;;;13.70;10.35;;;2.60;97.90;;;;;;5046050;28;20049;-75
2021/01/29 07:57:46;;;;;;;13.57;9.75;;;2.50;98.20;;;;;;5067214;28;20041;-75
2021/01/29 08:00:54;;;;;;;14.15;9.57;;;2.60;98.10;;;;;;5049563;28;20052;-74
2021/01/29 08:03:39;;;;;;;11.98;8.98;;;2.60;98.20;;;;;;5043363;28;20047;-74
2021/01/29 08:06:12;;;;;;;13.93;9.48;;;2.60;98.20;;;;;;5060930;28;20048;-74
2021/01/29 08:09:20;;;;;;;13.93;10.30;;;2.60;98.00;;;;;;5058105;28;20061;-74
2021/01/29 08:11:52;;;;;;;14.07;10.18;;;2.70;97.90;;;;;;5055876;28;20056;-73
2021/01/29 08:14:47;;;;;;;12.93;10.02;;;2.60;98.10;;;;;;5054194;28;20063;-73
2021/01/29 08:17:36;;;;;;;12.38;8.73;;;2.70;98.10;;;;;;5019100;28;20060;-74
2021/01/29 08:20:38;;;;;;;11.90;9.02;;;2.70;98.20;;;;;;5039998;28;20044;-74
2021/01/29 08:23:09;;;;;;;15.27;10.38;;;2.80;98.00;;;;;;5050013;28;20061;-74
2021/01/29 08:26:01;;;;;;;11.48;8.90;;;2.70;98.10;;;;;;5047549;28;20049;-74
2021/01/29 08:28:52;;;;;;;12.77;9.30;;;2.70;98.20;;;;;;5042342;28;20051;-74
2021/01/29 08:31:26;;;;;;;12.40;9.20;;;2.70;98.20;;;;;;5039899;28;20107;-73
2021/01/29 08:34:27;;;;;;;11.48;8.77;;;2.70;98.20;;;;;;5037542;28;20084;-74
2021/01/29 08:37:14;;;;;;;11.20;8.50;;;2.70;98.20;;;;;;5043639;28;20056;-74
2021/01/29 08:40:02;;;;;;;12.45;9.18;;;2.80;98.00;;;;;;5025066;28;20045;-73
2021/01/29 08:43:05;;;;;;;11.55;9.10;;;2.80;98.00;;;;;;5048364;28;20042;-74
2021/01/29 08:45:49;;;;;;;11.82;9.05;;;2.70;98.10;;;;;;5047903;28;20060;-74
2021/01/29 08:48:48;;;;;;;10.60;8.82;;;2.80;98.10;;;;;;5044229;28;20049;-74
2021/01/29 08:51:29;;;;;;;11.10;7.97;;;2.80;98.10;;;;;;5055625;28;20064;-73
2021/01/29 08:53:57;;;;;;;13.00;8.88;;;2.80;98.10;;;;;;5049830;28;20116;-73
2021/01/29 08:56:25;;;;;;;11.13;8.55;;;2.90;98.00;;;;;;5052812;28;20064;-74
2021/01/29 08:59:18;;;;;;;11.48;8.27;;;2.90;97.90;;;;;;5056438;28;20757;-74
2021/01/29 09:02:10;;;;;;;10.70;8.88;;;2.90;98.00;;;;;;5059949;28;20049;-74
2021/01/29 09:04:48;;;;;;;9.82;8.15;;;2.90;98.30;;;;;;5050433;28;20056;-73
2021/01/29 09:07:24;;;;;;;10.90;8.50;;;2.90;98.00;;;;;;5031050;28;20060;-72
2021/01/29 09:09:51;;;;;;;12.02;8.13;;;3.00;97.80;;;;;;5035305;28;20125;-72
2021/01/29 09:12:27;;;;;;;13.80;9.32;;;3.10;97.50;;;;;;5061171;28;20163;-73
2021/01/29 09:14:58;;;;;;;10.73;8.93;;;3.10;97.40;;;;;;5029854;28;20596;-73
2021/01/29 09:17:33;;;;;;;10.45;8.57;;;3.10;97.40;;;;;;5055492;28;20059;-70
2021/01/29 09:20:04;;;;;;;11.77;8.60;;;3.10;97.40;;;;;;5050003;28;20112;-73
2021/01/29 09:22:57;;;;;;;13.18;9.90;;;3.20;97.20;;;;;;5070000;28;20132;-73
2021/01/29 09:25:41;;;;;;;9.65;7.80;;;3.20;97.30;;;;;;5047262;28;20447;-72
2021/01/29 09:28:18;;;;;;;9.77;7.43;;;3.20;97.30;;;;;;5056116;28;20671;-72
2021/01/29 09:30:56;;;;;;;9.73;7.90;;;3.20;97.60;;;;;;5036922;28;20060;-70
2021/01/29 09:33:36;;;;;;;9.50;7.65;;;3.20;97.20;;;;;;5057843;28;20045;-71
2021/01/29 09:36:06;;;;;;;8.77;7.23;;;3.10;97.80;;;;;;5036703;28;20300;-67
2021/01/29 09:38:35;;;;;;;8.80;6.70;;;3.00;97.90;;;;;;5054050;28;20195;-74
2021/01/29 09:41:20;;;;;;;8.95;7.18;;;3.20;97.40;;;;;;5035411;28;20046;-72
2021/01/29 09:44:23;;;;;;;9.02;6.95;;;3.40;96.60;;;;;;5057618;28;20037;-71
2021/01/29 09:46:55;;;;;;;8.60;7.10;;;3.20;97.10;;;;;;5065589;28;20056;-71
2021/01/29 09:49:41;;;;;;;8.13;6.63;;;3.10;97.60;;;;;;5042307;28;20072;-70
2021/01/29 09:52:48;;;;;;;8.75;7.25;;;3.20;97.80;;;;;;5066087;28;20068;-71
2021/01/29 09:55:29;;;;;;;9.77;7.88;;;3.20;97.70;;;;;;5030141;28;20055;-70
2021/01/29 09:58:10;;;;;;;8.82;7.38;;;3.20;97.90;;;;;;5046240;28;20057;-71
2021/01/29 10:00:39;;;;;;;10.20;7.30;;;3.30;97.70;;;;;;5030871;28;20108;-71
2021/01/29 10:03:25;;;;;;;9.00;6.95;;;3.20;97.80;;;;;;5042072;28;20089;-71
2021/01/29 10:05:57;;;;;;;9.23;7.00;;;3.20;98.00;;;;;;5026854;28;20473;-71
2021/01/29 10:08:29;;;;;;;9.00;7.30;;;3.20;98.00;;;;;;5042034;28;20058;-72
2021/01/29 10:11:19;;;;;;;7.70;6.50;;;3.10;98.30;;;;;;5034372;28;20055;-71
2021/01/29 10:14:06;;;;;;;7.03;5.65;;;3.10;98.20;;;;;;5039199;28;20112;-71
2021/01/29 10:16:47;;;;;;;11.68;9.30;;;3.20;98.20;;;;;;5038548;28;20087;-71
2021/01/29 10:19:38;;;;;;;16.40;11.35;;;3.30;98.20;;;;;;5035817;28;20077;-71
2021/01/29 10:22:27;;;;;;;15.43;11.65;;;3.20;98.60;;;;;;5041358;28;20144;-71
2021/01/29 10:25:08;;;;;;;14.18;10.50;;;3.20;98.40;;;;;;5025702;28;20116;-71
2021/01/29 10:27:38;;;;;;;12.90;9.77;;;3.30;98.40;;;;;;5024783;28;20053;-69
2021/01/29 10:30:22;;;;;;;15.88;10.93;;;3.30;98.40;;;;;;5041411;28;20091;-74
2021/01/29 10:33:07;;;;;;;14.23;10.25;;;3.30;98.50;;;;;;5073303;28;20045;-75
2021/01/29 10:35:50;;;;;;;12.82;10.40;;;3.30;98.50;;;;;;5035851;28;20108;-74
2021/01/29 10:38:35;;;;;;;11.27;9.82;;;3.50;98.40;;;;;;5049904;28;20041;-71
2021/01/29 10:41:06;;;;;;;10.35;8.10;;;3.60;98.00;;;;;;5051080;28;20071;-71
2021/01/29 10:43:53;;;;;;;9.50;8.30;;;3.50;97.90;;;;;;5045654;28;20077;-70
2021/01/29 10:46:28;;;;;;;9.25;7.90;;;3.50;98.10;;;;;;5040817;28;20040;-71
2021/01/29 10:49:21;;;;;;;9.15;7.25;;;3.50;98.10;;;;;;5053808;28;20060;-72
2021/01/29 10:52:00;;;;;;;9.48;7.90;;;3.50;98.20;;;;;;5041078;28;20559;-71
2021/01/29 10:54:35;;;;;;;11.25;8.98;;;3.40;98.30;;;;;;5060911;28;20216;-74
2021/01/29 10:57:27;;;;;;;8.68;7.60;;;3.50;98.30;;;;;;5046303;28;20122;-69
2021/01/29 11:00:06;;;;;;;10.73;8.93;;;3.60;98.10;;;;;;5057895;28;20362;-71
2021/01/29 11:02:38;;;;;;;9.15;7.65;;;3.50;98.10;;;;;;5057757;28;20095;-71
2021/01/29 11:05:17;;;;;;;11.80;8.13;;;3.60;98.10;;;;;;5048002;28;20038;-70
2021/01/29 11:07:49;;;;;;;10.55;8.52;;;3.70;97.80;;;;;;5019462;28;20084;-70
2021/01/29 11:10:22;;;;;;;9.13;7.20;;;3.60;98.00;;;;;;5038633;28;20053;-71
2021/01/29 11:13:12;;;;;;;10.13;8.30;;;3.70;98.10;;;;;;5055039;28;20409;-72
2021/01/29 11:15:57;;;;;;;9.65;7.45;;;3.70;97.90;;;;;;5046380;28;20154;-71
2021/01/29 11:18:34;;;;;;;9.48;7.57;;;3.70;98.10;;;;;;5060619;28;20045;-72
2021/01/29 11:21:15;;;;;;;9.32;7.60;;;3.60;98.10;;;;;;5052952;28;20051;-72
2021/01/29 11:24:10;;;;;;;8.65;7.30;;;3.70;98.30;;;;;;5063670;28;20624;-67
2021/01/29 11:26:52;;;;;;;10.20;8.05;;;3.70;98.40;;;;;;5053326;28;20105;-67
2021/01/29 11:29:40;;;;;;;10.23;8.23;;;3.70;98.40;;;;;;5059446;28;20037;-76
2021/01/29 11:32:21;;;;;;;10.13;8.65;;;3.90;98.40;;;;;;5059447;28;20048;-76
2021/01/29 11:34:47;;;;;;;;;;;3.90;98.20;;;;;;5057550;28;20047;-74
2021/01/29 11:37:20;;;;;;;13.40;10.20;;;3.90;98.00;;;;;;5063218;28;19931;-74
2021/01/29 11:39:56;;;;;;;18.88;11.38;;;3.90;98.00;;;;;;5056025;28;20040;-79
2021/01/29 11:42:32;;;;;;;10.70;8.68;;;3.90;98.00;;;;;;5058530;28;20060;-74
2021/01/29 11:45:14;;;;;;;10.85;8.82;;;3.90;98.20;;;;;;5053522;28;20040;-75
2021/01/29 11:47:48;;;;;;;10.73;7.63;;;3.90;98.20;;;;;;5061577;28;20056;-75
2021/01/29 11:50:27;;;;;;;9.50;8.05;;;4.00;98.30;;;;;;5057977;28;20384;-75
2021/01/29 11:52:59;;;;;;;10.48;8.73;;;4.00;98.10;;;;;;5064608;28;20069;-77
2021/01/29 11:55:30;;;;;;;13.02;9.30;;;4.00;98.00;;;;;;5056054;28;20168;-77
2021/01/29 11:58:40;;;;;;;12.02;9.52;;;4.00;98.20;;;;;;5061824;28;20077;-77
2021/01/29 12:01:35;;;;;;;12.35;9.80;;;4.00;98.60;;;;;;5029779;28;20065;-77
2021/01/29 12:04:22;;;;;;;16.63;10.77;;;4.00;99.20;;;;;;5032530;28;20058;-69
2021/01/29 12:07:15;;;;;;;15.05;10.27;;;4.00;99.10;;;;;;5033459;28;20049;-73
2021/01/29 12:09:51;;;;;;;12.48;9.27;;;4.10;99.20;;;;;;5023446;28;20057;-72
2021/01/29 12:12:24;;;;;;;21.77;14.15;;;4.10;99.30;;;;;;5036027;28;20529;-73
2021/01/29 12:15:08;;;;;;;24.83;15.70;;;4.10;99.40;;;;;;5035665;28;20050;-73
2021/01/29 12:17:36;;;;;;;26.98;15.98;;;4.20;99.60;;;;;;5036692;28;20377;-73
2021/01/29 12:20:16;;;;;;;30.13;16.33;;;4.20;99.90;;;;;;5034107;28;20153;-73
2021/01/29 12:23:08;;;;;;;22.00;9.40;;;4.40;99.90;;;;;;5039948;28;20053;-73
2021/01/29 12:25:48;;;;;;;25.15;9.57;;;4.50;99.90;;;;;;5037238;28;20462;-73
2021/01/29 12:28:53;;;;;;;25.10;10.07;;;4.70;99.90;;;;;;5010420;28;20165;-72
2021/01/29 12:31:41;;;;;;;30.58;10.00;;;4.80;99.90;;;;;;5032194;28;20693;-71
2021/01/29 12:34:28;;;;;;;28.60;6.53;;;5.10;99.90;;;;;;5045868;28;20053;-73
2021/01/29 12:37:00;;;;;;;33.97;7.38;;;5.90;99.90;;;;;;5038669;28;20045;-71
2021/01/29 12:39:48;;;;;;;29.52;6.85;;;6.50;99.90;;;;;;5065061;28;20052;-72
2021/01/29 12:42:19;;;;;;;20.58;5.97;;;6.70;99.90;;;;;;5056626;28;20057;-71
2021/01/29 12:44:57;;;;;;;26.20;5.72;;;7.00;99.90;;;;;;5061924;28;20036;-72
2021/01/29 12:47:48;;;;;;;25.60;5.53;;;7.10;99.90;;;;;;5047285;28;20060;-75
2021/01/29 12:50:26;;;;;;;22.30;4.93;;;7.20;99.90;;;;;;5042299;28;20713;-73
2021/01/29 12:52:57;;;;;;;21.48;4.97;;;7.30;99.90;;;;;;5053246;28;20049;-71
2021/01/29 12:55:31;;;;;;;23.52;4.97;;;7.40;99.90;;;;;;5045631;28;20453;-69
2021/01/29 12:58:10;;;;;;;22.98;4.32;;;7.40;99.90;;;;;;5052568;28;20568;-70
2021/01/29 13:00:41;;;;;;;20.25;5.13;;;7.40;99.90;;;;;;5049014;28;20045;-72
2021/01/29 13:03:07;;;;;;;24.70;6.03;;;7.40;99.90;;;;;;5055639;28;20048;-71
2021/01/29 13:06:00;;;;;;;25.27;5.15;;;7.50;99.90;;;;;;5048637;28;20055;-71
2021/01/29 13:08:47;;;;;;;25.75;5.10;;;7.60;99.80;;;;;;5023510;28;20133;-71
2021/01/29 13:11:25;;;;;;;24.48;5.70;;;7.60;99.70;;;;;;5036147;28;20043;-71
2021/01/29 13:14:08;;;;;;;21.17;5.75;;;7.60;99.90;;;;;;5060913;28;20049;-70
2021/01/29 13:17:06;;;;;;;28.48;6.35;;;7.60;99.60;;;;;;5040142;28;20049;-71
2021/01/29 13:19:38;;;;;;;30.13;6.82;;;7.60;99.80;;;;;;5016163;28;20860;-70
2021/01/29 13:22:30;;;;;;;33.30;6.68;;;7.60;99.80;;;;;;5005798;28;20061;-70
2021/01/29 13:25:19;;;;;;;27.10;5.85;;;7.70;99.40;;;;;;5008670;28;20053;-71
2021/01/29 13:28:06;;;;;;;30.25;6.80;;;7.70;99.20;;;;;;5011847;28;20379;-72
2021/01/29 13:30:38;;;;;;;31.50;6.65;;;7.70;99.30;;;;;;4999829;28;20142;-72
2021/01/29 13:33:12;;;;;;;26.35;6.13;;;7.70;99.70;;;;;;5011853;28;20057;-70
2021/01/29 13:35:40;;;;;;;22.98;5.70;;;7.70;99.20;;;;;;4998321;28;20786;-73
2021/01/29 13:38:10;;;;;;;25.38;6.00;;;7.70;99.60;;;;;;5015128;28;20345;-72
2021/01/29 13:40:37;;;;;;;30.73;7.00;;;7.70;99.40;;;;;;5011548;28;20117;-74
2021/01/29 13:43:30;;;;;;;19.48;5.30;;;7.70;99.20;;;;;;5015225;28;20053;-73
2021/01/29 13:46:00;;;;;;;25.58;5.75;;;7.70;99.50;;;;;;5003812;28;20136;-74